Time;durP1;ratioP1;P1;durP2;ratioP2;P2;SDS_P1;SDS_P2;PMS_P1;PMS_P2;Temp;Humidity;BMP_temperature;BMP_pressure;BME280_temperature;BME280_humidity;BME280_pressure;Samples;Min_cycle;Max_cycle;Signal;HPM_P1;HPM_P2
2022/07/14 00:01:31;;;;;;;1.67;0.90;;;24.90;47.80;;;;;;7370065;19;20491;-49
2022/07/14 00:04:02;;;;;;;1.23;1.00;;;25.00;48.20;;;;;;7377569;19;20368;-50
2022/07/14 00:06:31;;;;;;;1.77;1.33;;;25.00;48.10;;;;;;7381545;19;20416;-49
2022/07/14 00:09:01;;;;;;;2.40;1.30;;;25.00;48.20;;;;;;7378870;19;20914;-50
2022/07/14 00:11:31;;;;;;;1.90;1.60;;;25.00;47.80;;;;;;7378379;19;20372;-50
2022/07/14 00:14:00;;;;;;;2.40;1.90;;;25.00;47.70;;;;;;7379778;19;20379;-49
2022/07/14 00:16:32;;;;;;;1.87;1.77;;;25.00;48.30;;;;;;7377022;19;20492;-50
2022/07/14 00:19:02;;;;;;;2.73;1.50;;;25.00;48.50;;;;;;7386317;19;20422;-50
2022/07/14 00:21:31;;;;;;;2.47;1.30;;;25.00;48.40;;;;;;7382465;19;20368;-50
2022/07/14 00:24:01;;;;;;;1.10;1.00;;;25.00;48.50;;;;;;7377482;19;20472;-50
2022/07/14 00:26:30;;;;;;;2.00;1.00;;;24.90;48.50;;;;;;7381899;19;20400;-50
2022/07/14 00:29:00;;;;;;;1.10;1.00;;;24.90;48.70;;;;;;7383886;19;20384;-49
2022/07/14 00:31:32;;;;;;;3.80;1.03;;;24.70;48.50;;;;;;7371149;19;20494;-50
2022/07/14 00:34:02;;;;;;;1.47;1.20;;;24.70;48.70;;;;;;7376327;19;20405;-49
2022/07/14 00:36:32;;;;;;;1.30;1.20;;;24.80;49.30;;;;;;7381450;19;20909;-50
2022/07/14 00:39:01;;;;;;;1.70;1.40;;;24.80;49.20;;;;;;7384142;19;20391;-49
2022/07/14 00:41:34;;;;;;;1.30;0.90;;;24.80;49.20;;;;;;7375162;19;20380;-49
2022/07/14 00:44:04;;;;;;;1.60;1.30;;;24.80;49.20;;;;;;7375607;19;20735;-49
2022/07/14 00:46:39;;;;;;;1.30;1.20;;;24.80;49.50;;;;;;7377849;19;20388;-49
2022/07/14 00:49:11;;;;;;;1.97;1.30;;;24.80;49.60;;;;;;7384062;19;20376;-49
2022/07/14 00:51:40;;;;;;;3.73;1.20;;;24.70;49.80;;;;;;7379133;19;20360;-50
2022/07/14 00:54:10;;;;;;;2.00;1.43;;;24.70;50.10;;;;;;7373889;19;20376;-49
2022/07/14 00:56:39;;;;;;;2.00;1.40;;;24.60;49.90;;;;;;7381384;19;20401;-49
2022/07/14 00:59:10;;;;;;;1.20;1.10;;;24.60;50.20;;;;;;7380391;19;20417;-49
2022/07/14 01:01:42;;;;;;;1.93;1.40;;;24.50;50.10;;;;;;7370859;19;21100;-50
2022/07/14 01:04:14;;;;;;;3.70;1.33;;;24.50;50.60;;;;;;7375907;19;20380;-49
2022/07/14 01:06:43;;;;;;;3.93;1.10;;;24.30;50.80;;;;;;7382123;19;20403;-49
2022/07/14 01:09:13;;;;;;;3.07;1.20;;;24.40;50.90;;;;;;7374623;19;20368;-49
2022/07/14 01:11:45;;;;;;;1.60;1.40;;;24.30;51.00;;;;;;7382992;19;21223;-49
2022/07/14 01:14:14;;;;;;;2.70;1.43;;;24.30;50.90;;;;;;7379580;19;20380;-49
2022/07/14 01:16:46;;;;;;;2.70;1.60;;;24.20;51.20;;;;;;7369907;19;21526;-49
2022/07/14 01:19:20;;;;;;;1.60;1.50;;;24.30;51.40;;;;;;7381179;19;20889;-49
2022/07/14 01:21:53;;;;;;;2.20;1.50;;;24.20;51.10;;;;;;7371566;19;20384;-49
2022/07/14 01:24:23;;;;;;;2.03;1.10;;;24.00;50.80;;;;;;7380135;19;20488;-48
2022/07/14 01:26:52;;;;;;;1.53;1.20;;;23.80;51.30;;;;;;7375295;19;20364;-49
2022/07/14 01:29:23;;;;;;;1.17;1.00;;;23.70;51.60;;;;;;7375600;19;20909;-49
2022/07/14 01:31:52;;;;;;;1.30;0.80;;;23.70;51.50;;;;;;7372734;19;20824;-49
2022/07/14 01:34:22;;;;;;;1.80;1.40;;;23.80;51.50;;;;;;7372244;19;20364;-51
2022/07/14 01:36:55;;;;;;;1.10;1.00;;;23.70;51.80;;;;;;7377811;19;20372;-49
2022/07/14 01:39:24;;;;;;;1.50;0.93;;;23.70;52.10;;;;;;7374461;19;20420;-49
2022/07/14 01:41:56;;;;;;;3.47;1.20;;;23.60;52.00;;;;;;7381442;19;20409;-50
2022/07/14 01:44:26;;;;;;;2.30;1.37;;;23.60;52.50;;;;;;7379448;19;20515;-51
2022/07/14 01:46:55;;;;;;;1.60;0.93;;;23.60;52.70;;;;;;7379381;19;20384;-49
2022/07/14 01:49:25;;;;;;;2.00;1.17;;;23.60;52.70;;;;;;7373687;19;20374;-52
2022/07/14 01:51:57;;;;;;;1.50;1.40;;;23.40;53.00;;;;;;7374823;19;20376;-50
2022/07/14 01:54:29;;;;;;;1.30;1.10;;;23.30;53.30;;;;;;7373938;19;20425;-49
2022/07/14 01:56:59;;;;;;;2.93;1.43;;;23.30;53.60;;;;;;7381838;19;20813;-49
2022/07/14 01:59:28;;;;;;;1.13;1.00;;;23.30;53.50;;;;;;7377260;19;20431;-50
2022/07/14 02:02:00;;;;;;;2.33;1.57;;;23.30;53.50;;;;;;7374539;19;20405;-49
2022/07/14 02:04:29;;;;;;;1.30;1.20;;;23.10;53.80;;;;;;7372017;19;20404;-49
2022/07/14 02:07:01;;;;;;;2.07;1.10;;;22.80;55.00;;;;;;7380269;19;20381;-49
2022/07/14 02:12:29;;;;;;;1.90;1.43;;;22.70;54.30;;;;;;7380693;19;20388;-49
2022/07/14 02:14:59;;;;;;;2.10;1.30;;;22.70;54.20;;;;;;7378200;19;20917;-50
2022/07/14 02:17:31;;;;;;;1.43;1.10;;;22.70;54.20;;;;;;7385423;19;20841;-49
2022/07/14 02:20:00;;;;;;;2.10;1.00;;;22.70;53.80;;;;;;7388329;19;20380;-49
2022/07/14 02:22:33;;;;;;;2.60;1.00;;;22.50;54.00;;;;;;7387999;19;20380;-50
2022/07/14 02:25:02;;;;;;;1.40;1.00;;;22.50;54.20;;;;;;7386285;19;20403;-49
2022/07/14 02:27:32;;;;;;;1.63;1.03;;;22.60;54.10;;;;;;7377452;19;20387;-50
2022/07/14 02:30:01;;;;;;;1.27;1.17;;;22.60;54.00;;;;;;7386790;19;25199;-52
2022/07/14 02:32:32;;;;;;;2.00;1.00;;;22.50;53.70;;;;;;7382762;19;20379;-51
2022/07/14 02:35:01;;;;;;;1.63;1.20;;;22.50;53.90;;;;;;7386650;19;20752;-51
2022/07/14 02:37:33;;;;;;;1.33;1.20;;;22.40;53.90;;;;;;7377754;19;20406;-52
2022/07/14 02:40:03;;;;;;;3.97;1.00;;;22.20;54.10;;;;;;7387114;19;20412;-51
2022/07/14 02:42:33;;;;;;;1.20;1.10;;;22.00;54.50;;;;;;7385592;19;20379;-51
2022/07/14 02:45:03;;;;;;;3.10;1.30;;;22.00;54.10;;;;;;7386915;19;20739;-52
2022/07/14 02:47:32;;;;;;;2.20;1.30;;;21.90;54.60;;;;;;7382463;19;20415;-52
2022/07/14 02:50:02;;;;;;;2.00;1.20;;;21.90;54.40;;;;;;7382740;19;20418;-53
2022/07/14 02:52:35;;;;;;;1.40;1.13;;;22.00;54.20;;;;;;7387864;19;20364;-52
2022/07/14 02:55:06;;;;;;;1.87;1.00;;;21.90;54.10;;;;;;7386037;19;20383;-51
2022/07/14 02:57:38;;;;;;;2.73;1.13;;;21.70;54.20;;;;;;7384988;19;20406;-51
2022/07/14 03:00:10;;;;;;;0.97;0.87;;;21.70;55.10;;;;;;7379418;19;21089;-52
2022/07/14 03:02:40;;;;;;;1.77;1.10;;;21.60;54.90;;;;;;7385481;19;20742;-52
2022/07/14 03:05:11;;;;;;;2.70;1.40;;;21.70;54.80;;;;;;7387048;19;20380;-50
2022/07/14 03:07:43;;;;;;;2.20;1.00;;;21.90;54.40;;;;;;7375169;19;20456;-49
2022/07/14 03:10:12;;;;;;;6.70;1.30;;;22.00;54.30;;;;;;7385741;19;20382;-50
2022/07/14 03:12:42;;;;;;;4.20;1.20;;;21.90;54.30;;;;;;7386107;19;20372;-50
2022/07/14 03:15:12;;;;;;;1.57;1.00;;;21.60;54.10;;;;;;7382579;19;20384;-48
2022/07/14 03:17:42;;;;;;;2.00;0.90;;;21.30;55.20;;;;;;7387016;19;20384;-51
2022/07/14 03:20:12;;;;;;;0.90;0.90;;;21.20;55.50;;;;;;7385173;19;20728;-52
2022/07/14 03:22:45;;;;;;;1.60;1.20;;;21.30;55.10;;;;;;7386699;19;20360;-51
2022/07/14 03:25:22;;;;;;;1.07;0.97;;;21.20;55.50;;;;;;7385862;19;20436;-51
2022/07/14 03:27:51;;;;;;;1.53;1.00;;;21.10;55.20;;;;;;7386579;19;20427;-51
2022/07/14 03:30:23;;;;;;;1.33;1.23;;;21.10;55.20;;;;;;7379374;19;20429;-50
2022/07/14 03:32:52;;;;;;;1.13;1.00;;;21.30;55.10;;;;;;7385022;19;20383;-51
2022/07/14 03:35:22;;;;;;;1.33;1.13;;;21.40;54.80;;;;;;7383272;19;20384;-50
2022/07/14 03:37:56;;;;;;;3.20;1.33;;;21.50;54.50;;;;;;7380357;19;20383;-51
2022/07/14 03:40:27;;;;;;;0.97;0.87;;;21.80;54.40;;;;;;7386313;19;20375;-51
2022/07/14 03:42:56;;;;;;;1.20;1.00;;;21.90;54.00;;;;;;7382557;19;20372;-51
2022/07/14 03:45:26;;;;;;;1.27;1.17;;;21.90;53.70;;;;;;7384174;19;20368;-51
2022/07/14 03:47:55;;;;;;;1.20;1.10;;;21.70;54.40;;;;;;7370236;19;20908;-50
2022/07/14 03:50:28;;;;;;;0.97;0.90;;;21.60;54.60;;;;;;7387502;19;20379;-51
2022/07/14 03:53:01;;;;;;;1.17;1.07;;;21.80;54.70;;;;;;7384162;19;20372;-51
2022/07/14 03:55:31;;;;;;;1.23;1.07;;;21.80;54.70;;;;;;7389483;19;21021;-53
2022/07/14 03:58:01;;;;;;;1.20;1.10;;;21.80;54.80;;;;;;7387502;19;20995;-52
2022/07/14 04:00:33;;;;;;;1.90;1.20;;;21.70;55.10;;;;;;7378887;19;20424;-46
2022/07/14 04:03:05;;;;;;;1.20;1.10;;;21.70;55.20;;;;;;7384227;19;20798;-46
2022/07/14 04:05:35;;;;;;;0.90;0.90;;;21.80;55.20;;;;;;7386680;19;20384;-46
2022/07/14 04:08:16;;;;;;;1.57;1.40;;;21.60;55.20;;;;;;7376600;19;20903;-46
2022/07/14 04:11:00;;;;;;;1.17;1.07;;;21.60;55.40;;;;;;7387601;19;20377;-46
2022/07/14 04:13:32;;;;;;;1.17;1.07;;;21.60;55.60;;;;;;7384458;19;20716;-46
2022/07/14 04:16:02;;;;;;;1.13;0.90;;;21.80;55.40;;;;;;7382380;19;20464;-46
2022/07/14 04:18:37;;;;;;;1.10;1.00;;;21.80;55.50;;;;;;7386117;19;20878;-46
2022/07/14 04:21:09;;;;;;;2.00;1.40;;;21.90;55.50;;;;;;7380206;19;21029;-46
2022/07/14 04:23:41;;;;;;;1.70;1.23;;;21.70;55.80;;;;;;7380105;19;21440;-46
2022/07/14 04:26:11;;;;;;;0.80;0.80;;;21.70;56.00;;;;;;7386575;19;20413;-46
2022/07/14 04:28:40;;;;;;;2.33;1.23;;;21.80;56.00;;;;;;7383847;19;20487;-46
2022/07/14 04:31:11;;;;;;;4.10;1.60;;;21.90;55.90;;;;;;7375117;19;20488;-51
2022/07/14 04:33:42;;;;;;;1.97;1.13;;;21.90;56.00;;;;;;7385374;19;21336;-51
2022/07/14 04:36:12;;;;;;;1.77;1.10;;;21.90;56.20;;;;;;7385499;19;20432;-51
2022/07/14 04:38:45;;;;;;;3.20;1.00;;;21.80;56.10;;;;;;7380882;19;20382;-52
2022/07/14 04:41:14;;;;;;;2.50;1.27;;;21.70;56.50;;;;;;7385334;19;20376;-50
2022/07/14 04:43:44;;;;;;;3.53;1.60;;;21.50;56.40;;;;;;7380498;19;20384;-51
2022/07/14 04:46:14;;;;;;;2.70;1.40;;;21.40;57.10;;;;;;7375111;19;20972;-51
2022/07/14 04:54:22;;;;;;;1.13;1.03;;;21.30;57.90;;;;;;7379398;19;20421;-52
2022/07/14 04:57:10;;;;;;;1.93;1.07;;;21.50;57.50;;;;;;7377905;19;20922;-51
2022/07/14 04:59:46;;;;;;;1.30;1.20;;;21.70;57.50;;;;;;7374779;19;20451;-46
2022/07/14 05:02:17;;;;;;;2.30;1.63;;;21.80;57.10;;;;;;7373849;19;20905;-46
2022/07/14 05:04:50;;;;;;;1.50;1.40;;;21.90;56.60;;;;;;7371646;19;20380;-46
2022/07/14 05:07:20;;;;;;;2.20;1.43;;;22.00;56.80;;;;;;7377130;19;20910;-46
2022/07/14 05:09:58;;;;;;;1.90;1.50;;;22.10;55.80;;;;;;7382560;19;20459;-46
2022/07/14 05:12:29;;;;;;;1.60;1.40;;;21.80;56.40;;;;;;7384521;19;20368;-46
2022/07/14 05:15:01;;;;;;;2.20;1.23;;;21.70;57.10;;;;;;7380093;19;21115;-46
2022/07/14 05:17:31;;;;;;;1.20;1.10;;;21.80;57.00;;;;;;7384247;19;20373;-46
2022/07/14 05:20:04;;;;;;;1.83;1.60;;;22.00;57.40;;;;;;7380611;19;20368;-46
2022/07/14 05:22:37;;;;;;;4.60;1.50;;;22.10;56.40;;;;;;7378084;19;20534;-46
2022/07/14 05:25:14;;;;;;;2.50;2.07;;;22.30;55.70;;;;;;7381435;19;20399;-46
2022/07/14 05:27:44;;;;;;;2.17;1.60;;;22.30;55.90;;;;;;7383169;19;20431;-46
2022/07/14 05:30:29;;;;;;;1.40;1.30;;;22.40;55.50;;;;;;7373327;19;20741;-51
2022/07/14 05:33:00;;;;;;;1.40;1.30;;;22.60;55.30;;;;;;7384583;19;20918;-51
2022/07/14 05:35:33;;;;;;;3.67;1.43;;;22.70;55.40;;;;;;7381890;19;20373;-51
2022/07/14 05:38:04;;;;;;;2.10;1.53;;;22.70;55.20;;;;;;7378626;19;20459;-52
2022/07/14 05:40:36;;;;;;;4.07;1.63;;;22.80;55.00;;;;;;7375820;19;20460;-51
2022/07/14 05:43:06;;;;;;;3.67;1.83;;;22.90;55.00;;;;;;7384190;19;20388;-51
2022/07/14 05:45:35;;;;;;;2.57;1.40;;;23.00;55.30;;;;;;7376453;19;20412;-51
2022/07/14 05:48:05;;;;;;;2.00;1.50;;;23.00;55.40;;;;;;7382162;19;20412;-51
2022/07/14 05:50:34;;;;;;;2.00;1.33;;;23.10;55.10;;;;;;7374727;19;20368;-51
2022/07/14 05:53:04;;;;;;;2.07;1.47;;;23.10;55.10;;;;;;7378408;19;20376;-50
2022/07/14 05:55:37;;;;;;;1.30;1.20;;;23.20;55.00;;;;;;7383078;19;20879;-51
2022/07/14 05:58:09;;;;;;;2.07;1.57;;;23.30;55.20;;;;;;7384067;19;20360;-52
2022/07/14 06:00:38;;;;;;;4.23;1.57;;;23.40;54.90;;;;;;7381295;19;20432;-51
2022/07/14 06:03:08;;;;;;;3.13;1.70;;;23.40;54.40;;;;;;7379849;19;20749;-52
2022/07/14 06:05:40;;;;;;;3.30;1.50;;;23.50;55.10;;;;;;7383824;19;20811;-51
2022/07/14 06:08:10;;;;;;;2.10;1.77;;;23.50;55.10;;;;;;7377499;19;20384;-50
2022/07/14 06:10:43;;;;;;;2.47;1.60;;;23.60;55.60;;;;;;7383101;19;20401;-50
2022/07/14 06:13:12;;;;;;;4.40;1.30;;;23.60;56.30;;;;;;7383570;19;20387;-49
2022/07/14 06:15:41;;;;;;;2.87;1.83;;;23.70;56.30;;;;;;7380078;19;20398;-49
2022/07/14 06:18:13;;;;;;;2.87;1.70;;;23.80;55.50;;;;;;7383340;19;20368;-49
2022/07/14 06:20:47;;;;;;;1.77;1.30;;;23.90;55.00;;;;;;7382893;19;20417;-51
2022/07/14 06:23:17;;;;;;;2.17;1.67;;;24.10;53.80;;;;;;7381127;19;20410;-49
2022/07/14 06:25:50;;;;;;;2.90;1.80;;;24.20;52.80;;;;;;7382277;19;20384;-50
2022/07/14 06:28:26;;;;;;;3.33;1.40;;;24.40;54.10;;;;;;7380150;19;20587;-50
2022/07/14 06:30:57;;;;;;;2.60;1.60;;;24.50;53.10;;;;;;7379294;19;20965;-49
2022/07/14 06:33:29;;;;;;;3.43;1.77;;;24.60;54.30;;;;;;7380628;19;20389;-49
2022/07/14 06:36:08;;;;;;;2.73;1.73;;;24.70;54.60;;;;;;7381715;19;20415;-49
2022/07/14 06:38:39;;;;;;;3.67;1.70;;;24.80;54.30;;;;;;7383506;19;20382;-49
2022/07/14 06:41:11;;;;;;;3.53;1.30;;;24.90;53.80;;;;;;7378424;19;20379;-50
2022/07/14 06:43:48;;;;;;;4.20;1.80;;;25.00;53.20;;;;;;7380643;19;20491;-50
2022/07/14 06:46:19;;;;;;;2.37;1.60;;;25.10;54.00;;;;;;7379633;19;20368;-48
2022/07/14 06:48:49;;;;;;;2.43;2.00;;;25.30;53.50;;;;;;7375265;19;20375;-49
2022/07/14 06:51:18;;;;;;;2.83;1.97;;;25.30;54.50;;;;;;7381301;19;20427;-49
2022/07/14 06:53:48;;;;;;;4.83;2.67;;;25.50;54.00;;;;;;7378777;19;20730;-51
2022/07/14 06:56:22;;;;;;;4.30;2.70;;;25.50;53.50;;;;;;7379656;19;20388;-49
2022/07/14 06:58:54;;;;;;;6.20;2.30;;;25.70;53.20;;;;;;7374989;19;20383;-50
2022/07/14 07:01:24;;;;;;;3.30;1.60;;;25.80;53.10;;;;;;7367267;19;20519;-49
2022/07/14 07:03:56;;;;;;;3.07;2.17;;;25.90;52.00;;;;;;7379445;19;20937;-51
2022/07/14 07:09:07;;;;;;;4.30;2.00;;;26.20;51.90;;;;;;7374978;19;20367;-49
2022/07/14 07:11:43;;;;;;;2.87;1.47;;;26.40;51.00;;;;;;7377379;19;20875;-50
2022/07/14 07:14:13;;;;;;;5.30;2.50;;;26.50;51.10;;;;;;7375173;19;20373;-49
2022/07/14 07:16:43;;;;;;;2.67;2.00;;;26.60;52.00;;;;;;7383140;19;20463;-50
2022/07/14 07:19:12;;;;;;;3.93;1.83;;;26.60;50.90;;;;;;7387159;19;20376;-51
2022/07/14 07:21:41;;;;;;;5.40;2.43;;;26.70;50.70;;;;;;7385714;19;20468;-51
2022/07/14 07:24:12;;;;;;;7.07;3.40;;;26.70;51.30;;;;;;7374904;19;20371;-51
2022/07/14 07:26:44;;;;;;;2.50;2.10;;;26.80;51.70;;;;;;7381328;19;20407;-50
2022/07/14 07:29:14;;;;;;;2.60;2.13;;;26.90;50.90;;;;;;7386935;19;20406;-49
2022/07/14 07:31:46;;;;;;;5.40;2.50;;;27.00;50.40;;;;;;7388936;19;21608;-47
2022/07/14 07:34:15;;;;;;;3.13;2.83;;;27.20;50.50;;;;;;7383607;19;20375;-45
2022/07/14 07:36:45;;;;;;;4.13;2.40;;;27.30;50.50;;;;;;7383701;19;20771;-45
2022/07/14 07:39:14;;;;;;;3.00;2.20;;;27.40;51.00;;;;;;7376333;19;20718;-47
2022/07/14 07:41:46;;;;;;;4.73;2.60;;;27.50;51.20;;;;;;7384111;19;21546;-46
2022/07/14 07:44:16;;;;;;;3.70;2.17;;;27.60;51.40;;;;;;7384884;19;20423;-45
2022/07/14 07:46:45;;;;;;;5.30;2.97;;;27.80;51.60;;;;;;7388482;19;20421;-46
2022/07/14 07:49:15;;;;;;;3.80;2.33;;;27.90;51.00;;;;;;7383870;19;21219;-45
2022/07/14 07:51:44;;;;;;;7.50;3.27;;;28.10;51.30;;;;;;7384478;19;20423;-46
2022/07/14 07:54:14;;;;;;;7.90;3.20;;;28.30;51.10;;;;;;7379140;19;20372;-46
2022/07/14 07:56:46;;;;;;;6.47;3.00;;;28.50;50.20;;;;;;7379472;19;20368;-49
2022/07/14 07:59:15;;;;;;;8.07;2.50;;;28.80;50.30;;;;;;7377384;19;20376;-46
2022/07/14 08:01:45;;;;;;;4.73;2.70;;;28.90;47.90;;;;;;7384667;19;20432;-51
2022/07/14 08:04:14;;;;;;;5.50;2.50;;;29.00;47.90;;;;;;7385932;19;20376;-51
2022/07/14 08:06:44;;;;;;;2.50;2.03;;;29.20;45.80;;;;;;7378785;19;20369;-51
2022/07/14 08:09:14;;;;;;;4.33;1.90;;;29.20;45.60;;;;;;7370046;19;21522;-51
2022/07/14 08:11:48;;;;;;;2.53;2.10;;;29.20;44.50;;;;;;7382239;19;21489;-51
2022/07/14 08:17:01;;;;;;;5.37;2.43;;;29.40;41.80;;;;;;7387252;19;20402;-50
2022/07/14 08:19:32;;;;;;;2.30;1.57;;;29.50;40.20;;;;;;7381271;19;20403;-50
2022/07/14 08:22:02;;;;;;;2.90;2.17;;;29.70;39.90;;;;;;7354029;19;20509;-50
2022/07/14 08:24:31;;;;;;;3.40;1.90;;;29.80;39.60;;;;;;7368252;19;20391;-50
2022/07/14 08:27:03;;;;;;;2.23;2.00;;;30.00;38.90;;;;;;7367748;19;20941;-50
2022/07/14 08:29:33;;;;;;;5.50;2.00;;;30.00;39.70;;;;;;7378871;19;20416;-45
2022/07/14 08:32:03;;;;;;;4.80;2.10;;;30.10;40.50;;;;;;7373057;19;20380;-46
2022/07/14 08:34:32;;;;;;;4.47;2.13;;;30.10;39.80;;;;;;7365924;19;20380;-46
2022/07/14 08:37:05;;;;;;;3.67;2.57;;;30.40;40.10;;;;;;7384674;19;20376;-46
2022/07/14 08:39:35;;;;;;;3.50;2.30;;;30.60;39.20;;;;;;7361849;19;20432;-46
2022/07/14 08:42:07;;;;;;;3.80;1.80;;;30.70;39.40;;;;;;7369851;19;20373;-46
2022/07/14 08:44:38;;;;;;;6.03;1.80;;;30.70;38.60;;;;;;7380344;19;20815;-46
2022/07/14 08:47:10;;;;;;;3.03;1.60;;;30.70;38.30;;;;;;7375306;19;20368;-46
2022/07/14 08:49:40;;;;;;;2.00;1.50;;;30.60;36.50;;;;;;7384203;19;20376;-46
2022/07/14 08:52:09;;;;;;;3.03;2.00;;;30.70;37.20;;;;;;7387141;19;20376;-46
2022/07/14 08:54:41;;;;;;;2.93;1.53;;;30.90;35.80;;;;;;7382927;19;20908;-46
2022/07/14 08:57:13;;;;;;;2.47;1.90;;;31.00;36.30;;;;;;7375906;19;20387;-46
2022/07/14 08:59:43;;;;;;;3.27;1.67;;;31.00;35.20;;;;;;7371117;19;20408;-46
2022/07/14 09:02:12;;;;;;;4.30;1.63;;;31.10;35.50;;;;;;7380663;19;20392;-46
2022/07/14 09:04:46;;;;;;;3.67;2.13;;;31.30;35.10;;;;;;7382556;19;20953;-46
2022/07/14 09:07:32;;;;;;;1.93;1.77;;;31.50;34.70;;;;;;7373942;19;20921;-46
2022/07/14 09:10:07;;;;;;;5.10;1.90;;;31.80;34.70;;;;;;7370768;19;20435;-46
2022/07/14 09:12:41;;;;;;;5.27;2.10;;;32.00;33.90;;;;;;7371734;19;20917;-46
2022/07/14 09:17:56;;;;;;;4.17;2.87;;;32.50;33.50;;;;;;7370120;19;20368;-46
2022/07/14 09:20:31;;;;;;;5.70;2.93;;;32.70;32.90;;;;;;7377090;19;20383;-46
2022/07/14 09:23:01;;;;;;;5.73;4.67;;;32.90;32.90;;;;;;7378398;19;20734;-46
2022/07/14 09:25:34;;;;;;;4.80;1.73;;;33.20;33.30;;;;;;7380253;19;20396;-46
2022/07/14 09:28:07;;;;;;;5.40;4.47;;;33.30;31.50;;;;;;7382326;19;20376;-46
2022/07/14 09:30:39;;;;;;;4.90;3.50;;;33.60;31.80;;;;;;7381977;19;20390;-46
2022/07/14 09:33:09;;;;;;;5.00;3.60;;;33.80;31.70;;;;;;7386451;19;20380;-46
2022/07/14 09:35:42;;;;;;;4.20;1.97;;;33.90;31.10;;;;;;7386455;19;20401;-47
2022/07/14 09:38:19;;;;;;;2.10;1.30;;;34.00;30.80;;;;;;7376201;19;20944;-46
2022/07/14 09:40:49;;;;;;;3.47;2.93;;;33.90;30.80;;;;;;7385194;19;20383;-50
2022/07/14 09:43:21;;;;;;;2.30;2.10;;;34.10;30.90;;;;;;7378802;19;20383;-50
2022/07/14 09:45:54;;;;;;;4.03;2.50;;;34.30;30.90;;;;;;7386193;19;20387;-51
2022/07/14 09:48:24;;;;;;;2.40;1.90;;;34.80;30.20;;;;;;7382973;19;20418;-50
2022/07/14 09:50:57;;;;;;;2.50;1.90;;;35.10;29.50;;;;;;7382088;19;20372;-50
2022/07/14 09:53:33;;;;;;;5.90;1.60;;;35.40;29.30;;;;;;7380822;19;20368;-50
2022/07/14 09:56:04;;;;;;;2.10;1.60;;;35.50;28.70;;;;;;7384321;19;20870;-50
2022/07/14 09:58:44;;;;;;;2.60;1.70;;;35.70;28.60;;;;;;7384939;19;20901;-50
2022/07/14 10:01:18;;;;;;;1.97;1.77;;;35.80;28.20;;;;;;7383107;19;20424;-51
2022/07/14 10:03:48;;;;;;;3.03;1.57;;;35.90;27.80;;;;;;7382877;19;20383;-51
2022/07/14 10:06:19;;;;;;;2.10;1.60;;;36.00;27.90;;;;;;7383125;19;20977;-50
2022/07/14 10:08:52;;;;;;;3.87;2.40;;;35.90;28.80;;;;;;7381550;19;20396;-50
2022/07/14 10:11:22;;;;;;;3.40;3.00;;;35.60;28.30;;;;;;7384889;19;20423;-46
2022/07/14 10:13:55;;;;;;;3.30;1.93;;;35.50;28.30;;;;;;7384264;19;20793;-46
2022/07/14 10:16:32;;;;;;;1.60;1.50;;;35.50;28.40;;;;;;7377462;19;20379;-46
2022/07/14 10:19:02;;;;;;;2.10;1.33;;;35.80;28.10;;;;;;7384532;19;20413;-46
2022/07/14 10:21:32;;;;;;;6.23;4.53;;;36.00;27.80;;;;;;7381475;19;20375;-47
2022/07/14 10:24:02;;;;;;;5.63;2.30;;;36.30;27.80;;;;;;7383418;19;20364;-46
2022/07/14 10:26:35;;;;;;;5.00;1.70;;;36.40;27.30;;;;;;7382166;19;20392;-46
2022/07/14 10:29:10;;;;;;;7.00;6.40;;;36.70;27.30;;;;;;7377680;19;20373;-47
2022/07/14 10:31:53;;;;;;;2.23;1.80;;;37.00;26.90;;;;;;7383546;19;20924;-46
2022/07/14 10:34:33;;;;;;;4.60;2.53;;;37.30;26.70;;;;;;7383015;19;20373;-46
2022/07/14 10:37:11;;;;;;;5.23;4.40;;;37.50;26.60;;;;;;7386492;19;20382;-46
2022/07/14 10:39:50;;;;;;;3.20;2.73;;;37.70;26.70;;;;;;7391381;19;20379;-51
2022/07/14 10:42:29;;;;;;;2.03;1.93;;;37.80;26.40;;;;;;7389885;19;20368;-51
2022/07/14 10:45:04;;;;;;;1.53;1.40;;;38.10;26.00;;;;;;7392140;19;20479;-50
2022/07/14 10:47:46;;;;;;;3.90;1.60;;;38.00;25.60;;;;;;7390792;19;20455;-50
2022/07/14 10:50:23;;;;;;;3.57;1.43;;;38.10;25.60;;;;;;7385890;19;20388;-51
2022/07/14 10:53:03;;;;;;;2.80;2.33;;;38.30;25.20;;;;;;7390716;19;20384;-50
2022/07/14 10:55:50;;;;;;;1.40;1.30;;;38.40;24.90;;;;;;7389463;19;20368;-51
2022/07/14 10:58:32;;;;;;;2.83;1.40;;;38.50;24.40;;;;;;7392205;19;20391;-50
2022/07/14 11:01:09;;;;;;;2.30;1.50;;;38.30;25.00;;;;;;7386288;19;20439;-50
2022/07/14 11:03:50;;;;;;;3.07;2.10;;;38.20;25.00;;;;;;7387176;19;20379;-51
2022/07/14 11:06:21;;;;;;;3.43;1.73;;;38.60;24.90;;;;;;7386068;19;20368;-52
2022/07/14 11:09:23;;;;;;;1.73;1.63;;;38.80;24.70;;;;;;7388970;19;20402;-50
2022/07/14 11:12:15;;;;;;;2.70;1.53;;;38.90;24.70;;;;;;7389375;19;20360;-47
2022/07/14 11:14:46;;;;;;;1.40;1.30;;;39.10;24.00;;;;;;7389046;19;20405;-46
2022/07/14 11:17:42;;;;;;;3.13;1.63;;;39.00;24.00;;;;;;7389871;19;20365;-47
2022/07/14 11:20:13;;;;;;;3.20;1.50;;;39.20;24.10;;;;;;7383974;19;20672;-46
2022/07/14 11:22:43;;;;;;;4.80;1.77;;;39.00;24.40;;;;;;7387051;19;20388;-47
2022/07/14 11:25:29;;;;;;;4.93;1.73;;;38.80;24.30;;;;;;7387915;19;20392;-47
2022/07/14 11:27:58;;;;;;;1.87;1.67;;;38.90;24.40;;;;;;7389276;19;20954;-47
2022/07/14 11:30:31;;;;;;;2.00;1.73;;;39.00;24.40;;;;;;7384683;19;20677;-47
2022/07/14 11:33:13;;;;;;;3.00;1.40;;;39.10;24.50;;;;;;7389590;19;20369;-47
2022/07/14 11:38:33;;;;;;;2.37;1.50;;;39.00;24.60;;;;;;7389056;19;20380;-47
2022/07/14 11:41:02;;;;;;;1.70;1.60;;;39.00;24.60;;;;;;7389409;19;20373;-47
2022/07/14 11:43:48;;;;;;;1.47;1.37;;;39.10;24.70;;;;;;7387873;19;20400;-46
2022/07/14 11:46:20;;;;;;;3.93;2.33;;;39.00;25.10;;;;;;7388949;19;20780;-47
2022/07/14 11:48:54;;;;;;;2.77;2.27;;;39.00;25.30;;;;;;7385025;19;20392;-47
2022/07/14 11:51:29;;;;;;;1.80;1.70;;;39.20;25.10;;;;;;7389306;19;20462;-47
2022/07/14 11:54:00;;;;;;;1.73;1.60;;;39.50;24.90;;;;;;7385916;19;20452;-47
2022/07/14 11:56:31;;;;;;;5.50;1.50;;;39.70;24.80;;;;;;7388579;19;20905;-47
2022/07/14 11:59:03;;;;;;;3.40;1.90;;;39.60;24.80;;;;;;7389190;19;20971;-47
2022/07/14 12:01:38;;;;;;;4.23;1.87;;;39.50;24.80;;;;;;7390189;19;20402;-47
2022/07/14 12:04:16;;;;;;;2.27;1.57;;;39.30;25.00;;;;;;7385723;19;20369;-47
2022/07/14 12:06:48;;;;;;;1.67;1.57;;;39.10;25.40;;;;;;7386666;19;20376;-47
2022/07/14 12:09:30;;;;;;;3.23;1.80;;;39.30;24.90;;;;;;7385959;19;25250;-47
2022/07/14 12:12:02;;;;;;;1.77;1.57;;;39.10;25.40;;;;;;7389081;19;20904;-51
2022/07/14 12:14:32;;;;;;;3.40;1.80;;;39.10;26.20;;;;;;7389020;19;20457;-52
2022/07/14 12:17:04;;;;;;;1.77;1.10;;;39.00;26.30;;;;;;7388516;19;20733;-51
2022/07/14 12:19:36;;;;;;;1.57;1.47;;;38.90;25.80;;;;;;7387640;19;20977;-51
2022/07/14 12:22:07;;;;;;;2.70;1.80;;;38.70;26.00;;;;;;7388013;19;20957;-52
2022/07/14 12:24:37;;;;;;;2.93;1.87;;;38.40;25.90;;;;;;7388177;19;20368;-50
2022/07/14 12:27:10;;;;;;;2.27;1.50;;;37.90;26.10;;;;;;7387026;19;20371;-50
2022/07/14 12:29:48;;;;;;;2.20;2.00;;;37.50;26.30;;;;;;7383439;19;20455;-50
2022/07/14 12:32:18;;;;;;;3.57;2.23;;;37.50;26.50;;;;;;7386562;19;20387;-51
2022/07/14 12:34:51;;;;;;;1.70;1.60;;;37.80;26.20;;;;;;7385563;19;20384;-50
2022/07/14 12:37:21;;;;;;;2.10;1.60;;;37.90;26.10;;;;;;7385181;19;20378;-51
2022/07/14 12:39:50;;;;;;;1.50;1.40;;;37.80;25.70;;;;;;7386309;19;20408;-51
2022/07/14 12:42:24;;;;;;;3.57;2.00;;;37.60;25.70;;;;;;7385913;19;20391;-51
2022/07/14 12:45:07;;;;;;;1.63;1.53;;;37.30;25.90;;;;;;7385770;19;20823;-50
2022/07/14 12:47:50;;;;;;;3.03;1.50;;;37.30;25.80;;;;;;7386457;19;20372;-50
2022/07/14 12:50:24;;;;;;;2.13;1.30;;;37.20;25.90;;;;;;7385061;19;21029;-50
2022/07/14 12:52:58;;;;;;;2.60;1.57;;;36.90;26.20;;;;;;7388481;19;20420;-50
2022/07/14 12:55:36;;;;;;;2.40;1.50;;;36.80;26.20;;;;;;7384514;19;20384;-50
2022/07/14 12:58:07;;;;;;;3.07;1.37;;;36.70;26.10;;;;;;7382924;19;20376;-51
2022/07/14 13:00:39;;;;;;;3.40;1.83;;;36.40;25.90;;;;;;7382481;19;20420;-50
2022/07/14 13:03:13;;;;;;;2.10;1.90;;;36.30;26.40;;;;;;7375828;19;20376;-50
2022/07/14 13:05:56;;;;;;;4.40;4.00;;;36.30;26.40;;;;;;7376023;19;20463;-51
2022/07/14 13:08:32;;;;;;;2.43;1.80;;;36.10;26.60;;;;;;7381577;19;20917;-50
2022/07/14 13:11:06;;;;;;;4.10;1.83;;;36.00;26.70;;;;;;7379390;19;20384;-51
2022/07/14 13:13:39;;;;;;;3.83;1.47;;;35.90;26.90;;;;;;7368012;19;20376;-52
2022/07/14 13:16:24;;;;;;;3.50;1.70;;;35.80;27.00;;;;;;7374714;19;20721;-50
2022/07/14 13:19:11;;;;;;;2.50;1.50;;;35.70;26.80;;;;;;7354554;19;20988;-52
2022/07/14 13:22:05;;;;;;;5.00;1.37;;;35.70;26.80;;;;;;7378843;19;20416;-51
2022/07/14 13:24:46;;;;;;;1.30;1.20;;;35.60;27.10;;;;;;7371873;19;21036;-50
2022/07/14 13:27:19;;;;;;;2.07;1.27;;;35.60;27.20;;;;;;7374591;19;20407;-51
2022/07/14 13:29:52;;;;;;;5.20;1.70;;;35.60;27.40;;;;;;7381875;19;20383;-51
2022/07/14 13:32:27;;;;;;;3.20;1.67;;;35.60;28.00;;;;;;7376985;19;20419;-51
2022/07/14 13:34:59;;;;;;;4.40;1.50;;;35.60;28.20;;;;;;7382998;19;20380;-51